Time;durP1;ratioP1;P1;durP2;ratioP2;P2;SDS_P1;SDS_P2;PMS_P1;PMS_P2;Temp;Humidity;BMP_temperature;BMP_pressure;BME280_temperature;BME280_humidity;BME280_pressure;Samples;Min_cycle;Max_cycle;Signal;HPM_P1;HPM_P2
2023/08/06 00:01:29;;;;;;;6.60;3.53;;;16.10;99.90;;;;;;5031902;28;20214;-88
2023/08/06 00:03:55;;;;;;;3.97;3.47;;;16.10;99.90;;;;;;5013182;28;21008;-88
2023/08/06 00:06:20;;;;;;;6.63;3.17;;;16.10;99.90;;;;;;5031609;28;20262;-88
2023/08/06 00:08:46;;;;;;;5.63;3.07;;;16.10;99.90;;;;;;5013891;28;20210;-88
2023/08/06 00:11:12;;;;;;;5.73;3.23;;;16.10;99.90;;;;;;5026128;28;20188;-87
2023/08/06 00:13:38;;;;;;;4.77;2.87;;;16.10;99.90;;;;;;5013766;28;20194;-88
2023/08/06 00:16:13;;;;;;;10.43;3.40;;;16.10;99.90;;;;;;5031827;28;20531;-88
2023/08/06 00:18:39;;;;;;;7.60;3.73;;;16.10;99.90;;;;;;5028080;28;20212;-88
2023/08/06 00:21:04;;;;;;;4.07;3.00;;;16.00;99.90;;;;;;5031660;28;20500;-88
2023/08/06 00:23:30;;;;;;;4.97;3.23;;;16.00;99.90;;;;;;5031846;28;20472;-88
2023/08/06 00:25:55;;;;;;;5.00;3.30;;;16.00;99.90;;;;;;5031886;28;20182;-88
2023/08/06 00:28:21;;;;;;;6.03;3.40;;;16.00;99.90;;;;;;5031695;28;20199;-87
2023/08/06 00:30:53;;;;;;;5.53;3.47;;;16.00;99.90;;;;;;5013179;28;20229;-88
2023/08/06 00:33:18;;;;;;;4.97;3.30;;;16.10;99.90;;;;;;5031105;28;20190;-87
2023/08/06 00:35:44;;;;;;;5.33;3.23;;;16.00;99.90;;;;;;5030287;28;21022;-87
2023/08/06 00:38:09;;;;;;;8.10;2.87;;;16.00;1.00;;;;;;5031393;28;20202;-88
2023/08/06 00:40:35;;;;;;;3.77;2.97;;;16.00;1.00;;;;;;5030829;28;20210;-87
2023/08/06 00:43:00;;;;;;;6.37;3.57;;;16.10;1.00;;;;;;5013890;28;20186;-88
2023/08/06 00:45:27;;;;;;;6.40;3.17;;;16.10;1.00;;;;;;5030674;28;20209;-87
2023/08/06 00:47:53;;;;;;;6.00;3.30;;;16.10;1.00;;;;;;5031117;28;20205;-88
2023/08/06 00:50:21;;;;;;;5.70;2.87;;;16.20;1.00;;;;;;5029856;28;20521;-87
2023/08/06 00:52:46;;;;;;;3.67;3.27;;;16.30;99.90;;;;;;5031248;28;20655;-88
2023/08/06 00:55:12;;;;;;;4.63;2.77;;;16.30;99.90;;;;;;5031489;28;20433;-88
2023/08/06 00:57:38;;;;;;;4.33;2.97;;;16.30;99.90;;;;;;5031028;28;20483;-88
2023/08/06 01:00:04;;;;;;;4.23;3.17;;;16.30;99.90;;;;;;5014493;28;20224;-88
2023/08/06 01:02:30;;;;;;;3.97;2.90;;;16.30;99.90;;;;;;5012903;28;20214;-88
2023/08/06 01:04:55;;;;;;;5.63;2.83;;;16.30;99.90;;;;;;5029908;28;20937;-88
2023/08/06 01:07:39;;;;;;;3.87;2.77;;;16.30;99.90;;;;;;5030410;28;20550;-88
2023/08/06 01:10:30;;;;;;;2.93;2.53;;;16.30;99.90;;;;;;5022528;28;20244;-88
2023/08/06 01:13:16;;;;;;;4.90;2.10;;;16.30;99.90;;;;;;5028114;28;20828;-88
2023/08/06 01:15:50;;;;;;;3.60;2.40;;;16.30;99.90;;;;;;5030498;28;20537;-88
2023/08/06 01:18:16;;;;;;;3.87;2.57;;;16.30;99.90;;;;;;5031067;28;20595;-88
2023/08/06 01:20:42;;;;;;;3.80;2.20;;;16.30;99.90;;;;;;5030674;28;20472;-88
2023/08/06 01:23:08;;;;;;;2.60;1.90;;;16.30;99.90;;;;;;5030347;28;20433;-87
2023/08/06 01:25:37;;;;;;;4.60;2.50;;;16.30;99.90;;;;;;5013504;28;20495;-88
2023/08/06 01:28:16;;;;;;;2.40;2.00;;;16.20;99.90;;;;;;5030406;28;20236;-87
2023/08/06 01:30:42;;;;;;;3.43;2.27;;;16.30;99.90;;;;;;5028524;28;20445;-87
2023/08/06 01:33:13;;;;;;;2.53;2.10;;;16.30;99.90;;;;;;5034645;28;20444;-88
2023/08/06 01:35:39;;;;;;;6.63;2.23;;;16.30;99.90;;;;;;5030410;28;20488;-88
2023/08/06 01:38:04;;;;;;;2.17;1.93;;;16.30;99.90;;;;;;5029226;28;20957;-87
2023/08/06 01:40:30;;;;;;;4.10;2.10;;;16.30;99.90;;;;;;5030062;28;20437;-88
2023/08/06 01:42:56;;;;;;;3.70;2.13;;;16.30;99.90;;;;;;5006679;28;20270;-88
2023/08/06 01:45:21;;;;;;;2.73;1.70;;;16.30;99.90;;;;;;5026637;28;20965;-88
2023/08/06 01:47:47;;;;;;;7.23;2.60;;;16.30;99.90;;;;;;5029126;28;20694;-87
2023/08/06 01:50:13;;;;;;;4.13;2.43;;;16.30;99.90;;;;;;5030850;28;20186;-88
2023/08/06 01:52:38;;;;;;;2.50;1.93;;;16.30;99.90;;;;;;5030733;28;20190;-88
2023/08/06 01:55:04;;;;;;;4.47;2.67;;;16.30;99.90;;;;;;5028727;28;20919;-88
2023/08/06 01:57:29;;;;;;;2.57;2.23;;;16.30;99.90;;;;;;5029869;28;20612;-88
2023/08/06 01:59:55;;;;;;;2.67;2.30;;;16.30;99.90;;;;;;5030668;28;20248;-87
2023/08/06 02:02:21;;;;;;;3.93;2.13;;;16.30;99.90;;;;;;5030672;28;20293;-88
2023/08/06 02:04:46;;;;;;;3.90;2.57;;;16.30;99.90;;;;;;5031597;28;20178;-87
2023/08/06 02:07:12;;;;;;;2.83;2.30;;;16.30;99.90;;;;;;5029827;28;20186;-88
2023/08/06 02:09:37;;;;;;;3.40;2.03;;;16.30;99.90;;;;;;5027535;28;20336;-88
2023/08/06 02:12:03;;;;;;;3.27;2.20;;;16.30;99.90;;;;;;5032708;28;20224;-87
2023/08/06 02:14:29;;;;;;;5.03;2.60;;;16.40;99.90;;;;;;5018574;28;20210;-87
2023/08/06 02:16:55;;;;;;;5.37;3.03;;;16.30;99.90;;;;;;5029101;28;20437;-87
2023/08/06 02:19:20;;;;;;;8.80;3.37;;;16.30;99.90;;;;;;5030047;28;20211;-87
2023/08/06 02:21:46;;;;;;;5.53;2.53;;;16.20;99.90;;;;;;5030085;28;20217;-87
2023/08/06 02:24:11;;;;;;;4.17;2.80;;;16.20;99.90;;;;;;5026593;28;20655;-88
2023/08/06 02:26:37;;;;;;;5.03;2.40;;;16.20;1.00;;;;;;5025991;28;20182;-88
2023/08/06 02:29:02;;;;;;;5.30;2.40;;;16.20;1.00;;;;;;5029601;28;20233;-87
2023/08/06 02:31:28;;;;;;;4.50;2.30;;;16.20;1.00;;;;;;5029646;28;20194;-88
2023/08/06 02:33:53;;;;;;;6.23;2.90;;;16.20;1.00;;;;;;5029926;28;20558;-88
2023/08/06 02:36:19;;;;;;;5.60;2.97;;;16.30;1.00;;;;;;5024927;28;20588;-87
2023/08/06 02:38:45;;;;;;;6.67;2.80;;;16.20;1.00;;;;;;5028149;28;20727;-88
2023/08/06 02:41:10;;;;;;;6.37;3.07;;;16.10;1.00;;;;;;5028747;28;20559;-88
2023/08/06 02:43:36;;;;;;;3.77;2.33;;;16.10;1.00;;;;;;5029040;28;20190;-87
2023/08/06 02:46:02;;;;;;;4.27;2.57;;;16.10;1.00;;;;;;5029397;28;20174;-88
2023/08/06 02:48:27;;;;;;;5.10;2.90;;;16.00;1.00;;;;;;5028902;28;20778;-88
2023/08/06 02:50:57;;;;;;;5.23;2.90;;;16.00;1.00;;;;;;5031252;28;20214;-87
2023/08/06 02:53:22;;;;;;;3.93;2.53;;;16.00;1.00;;;;;;5012849;28;20201;-87
2023/08/06 02:55:48;;;;;;;4.33;2.60;;;16.00;1.00;;;;;;5029660;28;20531;-87
2023/08/06 02:58:17;;;;;;;3.20;2.57;;;16.00;1.00;;;;;;5027725;28;20210;-88
2023/08/06 03:00:43;;;;;;;4.93;2.80;;;16.10;1.00;;;;;;5029764;28;20846;-88
2023/08/06 03:03:09;;;;;;;5.00;2.60;;;16.10;1.00;;;;;;5029579;28;20437;-88
2023/08/06 03:05:35;;;;;;;4.30;2.50;;;16.10;1.00;;;;;;5032081;28;20453;-87
2023/08/06 03:08:01;;;;;;;3.50;2.27;;;16.10;1.00;;;;;;5028716;28;20463;-88
2023/08/06 03:10:26;;;;;;;4.53;2.47;;;16.10;1.00;;;;;;5029613;28;20194;-87
2023/08/06 03:12:52;;;;;;;5.63;2.27;;;16.10;1.00;;;;;;5027268;28;20510;-88
2023/08/06 03:15:17;;;;;;;2.73;2.50;;;16.10;1.00;;;;;;5027961;28;20182;-86
2023/08/06 03:17:44;;;;;;;2.60;2.00;;;16.00;1.00;;;;;;5028299;28;20850;-87
2023/08/06 03:20:10;;;;;;;6.40;3.23;;;16.00;1.00;;;;;;5024214;28;20277;-87
2023/08/06 03:22:35;;;;;;;2.20;1.70;;;16.00;1.00;;;;;;5029474;28;20472;-87
2023/08/06 03:25:01;;;;;;;4.27;2.20;;;16.00;1.00;;;;;;5029199;28;20444;-87
2023/08/06 03:27:27;;;;;;;3.23;2.03;;;16.10;1.00;;;;;;5027989;28;20187;-88
2023/08/06 03:29:52;;;;;;;2.70;2.20;;;16.10;1.00;;;;;;5024126;28;20198;-87
2023/08/06 03:32:18;;;;;;;6.53;2.50;;;16.10;1.00;;;;;;5028353;28;20553;-87
2023/08/06 03:34:44;;;;;;;2.60;2.30;;;16.10;1.00;;;;;;5010056;28;20196;-88
2023/08/06 03:37:09;;;;;;;2.77;1.87;;;16.20;1.00;;;;;;5031340;28;20209;-88
2023/08/06 03:39:35;;;;;;;3.17;2.40;;;16.20;1.00;;;;;;5015231;28;20230;-88
2023/08/06 03:42:01;;;;;;;4.53;1.90;;;16.30;1.00;;;;;;5028322;28;20210;-88
2023/08/06 03:44:28;;;;;;;2.87;2.50;;;16.30;1.00;;;;;;5027294;28;20506;-88
2023/08/06 03:46:53;;;;;;;7.23;2.30;;;16.30;1.00;;;;;;5032146;28;20182;-87
2023/08/06 03:49:19;;;;;;;3.37;2.83;;;16.30;1.00;;;;;;5030802;28;20486;-88
2023/08/06 03:51:44;;;;;;;2.40;1.90;;;16.30;1.00;;;;;;5033066;28;20263;-88
2023/08/06 03:54:10;;;;;;;4.50;2.23;;;16.40;1.00;;;;;;5032759;28;20193;-88
2023/08/06 03:56:35;;;;;;;2.90;1.80;;;16.40;1.00;;;;;;5032384;28;20655;-88
2023/08/06 03:59:01;;;;;;;2.40;1.90;;;16.40;1.00;;;;;;5032126;28;20691;-89
2023/08/06 04:01:27;;;;;;;5.63;2.43;;;16.40;1.00;;;;;;5026895;28;20731;-88
2023/08/06 04:03:52;;;;;;;3.93;2.47;;;16.50;1.00;;;;;;5032659;28;20220;-88
2023/08/06 04:06:18;;;;;;;3.83;2.10;;;16.40;1.00;;;;;;5028780;28;20186;-88
2023/08/06 04:08:43;;;;;;;4.23;2.70;;;16.40;1.00;;;;;;5033090;28;20198;-88
2023/08/06 04:11:09;;;;;;;4.47;2.20;;;16.30;1.00;;;;;;5030121;28;20183;-88
2023/08/06 04:13:34;;;;;;;4.40;2.57;;;16.30;1.00;;;;;;5006466;28;20313;-88
2023/08/06 04:16:04;;;;;;;2.80;2.20;;;16.20;1.00;;;;;;5033319;28;20186;-88
2023/08/06 04:18:29;;;;;;;3.33;2.20;;;16.20;1.00;;;;;;5033158;28;20203;-88
2023/08/06 04:20:57;;;;;;;3.37;2.37;;;16.20;1.00;;;;;;5033565;28;20464;-88
2023/08/06 04:23:23;;;;;;;3.30;2.43;;;16.10;1.00;;;;;;5031443;28;20183;-87
2023/08/06 04:25:48;;;;;;;6.97;2.67;;;16.00;1.00;;;;;;5033907;28;21011;-88
2023/08/06 04:28:14;;;;;;;5.80;2.47;;;16.00;1.00;;;;;;5033331;28;20476;-88
2023/08/06 04:30:39;;;;;;;5.30;2.80;;;16.00;1.00;;;;;;5033759;28;20194;-88
2023/08/06 04:33:05;;;;;;;6.40;2.50;;;16.00;1.00;;;;;;5015652;28;20186;-88
2023/08/06 04:35:30;;;;;;;3.63;2.50;;;15.90;1.00;;;;;;5033294;28;20240;-88
2023/08/06 04:37:56;;;;;;;3.80;2.53;;;15.90;1.00;;;;;;5036078;28;20281;-88
2023/08/06 04:40:21;;;;;;;2.83;2.00;;;15.90;1.00;;;;;;5032127;28;20196;-88
2023/08/06 04:42:47;;;;;;;3.40;2.50;;;15.80;1.00;;;;;;5021570;28;20186;-88
2023/08/06 04:45:12;;;;;;;3.40;2.40;;;15.80;1.00;;;;;;5033165;28;20213;-88
2023/08/06 04:47:38;;;;;;;5.67;2.43;;;15.80;1.00;;;;;;5031990;28;20245;-88
2023/08/06 04:50:04;;;;;;;4.80;2.30;;;15.80;1.00;;;;;;5033212;28;21007;-88
2023/08/06 04:52:32;;;;;;;5.03;2.20;;;15.80;1.00;;;;;;5015418;28;20194;-88
2023/08/06 04:54:57;;;;;;;2.73;2.00;;;15.80;1.00;;;;;;5032119;28;20420;-88
2023/08/06 04:57:23;;;;;;;3.80;2.77;;;15.90;1.00;;;;;;5029447;28;20448;-88
2023/08/06 04:59:48;;;;;;;3.83;2.47;;;15.90;1.00;;;;;;5032525;28;20217;-88
2023/08/06 05:02:14;;;;;;;2.43;1.97;;;16.00;1.00;;;;;;5032833;28;20244;-88
2023/08/06 05:04:39;;;;;;;2.37;2.00;;;16.00;1.00;;;;;;5032954;28;20660;-88
2023/08/06 05:07:06;;;;;;;3.80;1.97;;;16.00;1.00;;;;;;5032697;28;20182;-88
2023/08/06 05:09:31;;;;;;;2.37;1.63;;;16.10;1.00;;;;;;5032904;28;20206;-88
2023/08/06 05:11:57;;;;;;;3.37;2.00;;;16.20;1.00;;;;;;5018878;28;20826;-88
2023/08/06 05:14:23;;;;;;;3.37;2.10;;;16.10;1.00;;;;;;5015670;28;20186;-88
2023/08/06 05:16:48;;;;;;;2.90;2.30;;;16.20;1.00;;;;;;5031779;28;20244;-88
2023/08/06 05:19:14;;;;;;;3.90;2.10;;;16.10;1.00;;;;;;5032632;28;20207;-88
2023/08/06 05:21:39;;;;;;;4.77;2.20;;;16.20;1.00;;;;;;5014105;28;20205;-88
2023/08/06 05:24:05;;;;;;;2.87;2.27;;;16.20;1.00;;;;;;5032907;28;20248;-88
2023/08/06 05:26:30;;;;;;;3.97;2.30;;;16.10;1.00;;;;;;5032815;28;20182;-88
2023/08/06 05:28:56;;;;;;;3.00;2.00;;;16.10;1.00;;;;;;5031022;28;20209;-88
2023/08/06 05:31:21;;;;;;;3.63;2.23;;;16.10;1.00;;;;;;5025971;28;20198;-88
2023/08/06 05:33:47;;;;;;;5.37;2.13;;;16.10;1.00;;;;;;5032659;28;20191;-88
2023/08/06 05:36:13;;;;;;;2.73;2.03;;;16.10;1.00;;;;;;5032122;28;20191;-88
2023/08/06 05:38:38;;;;;;;2.93;2.27;;;16.20;1.00;;;;;;5032162;28;20202;-88
2023/08/06 05:41:04;;;;;;;2.93;2.63;;;16.30;1.00;;;;;;5031455;28;20626;-89
2023/08/06 05:43:29;;;;;;;3.20;1.87;;;16.40;1.00;;;;;;5016785;28;20191;-88
2023/08/06 05:45:56;;;;;;;4.37;2.27;;;16.50;1.00;;;;;;5024471;28;20659;-88
2023/08/06 05:48:24;;;;;;;3.83;2.07;;;16.60;1.00;;;;;;5027613;28;20265;-88
2023/08/06 05:50:50;;;;;;;2.17;1.60;;;16.60;1.00;;;;;;5032607;28;20837;-88
2023/08/06 05:53:15;;;;;;;3.27;1.90;;;16.70;1.00;;;;;;5014413;28;20461;-88
2023/08/06 05:55:41;;;;;;;4.40;2.33;;;16.70;1.00;;;;;;5032010;28;20187;-89
2023/08/06 05:58:06;;;;;;;2.10;1.50;;;16.70;1.00;;;;;;5023308;28;20203;-88
2023/08/06 06:00:32;;;;;;;2.33;1.30;;;16.60;1.00;;;;;;5031938;28;20200;-88
2023/08/06 06:02:57;;;;;;;3.80;2.13;;;16.60;1.00;;;;;;5031986;28;20258;-88
2023/08/06 06:05:23;;;;;;;1.50;1.10;;;16.60;1.00;;;;;;5010988;28;20321;-88
2023/08/06 06:07:48;;;;;;;1.70;1.30;;;16.70;1.00;;;;;;5031410;28;20288;-88
2023/08/06 06:10:14;;;;;;;2.37;1.50;;;16.70;1.00;;;;;;5015355;28;20179;-88
2023/08/06 06:12:40;;;;;;;2.00;1.20;;;16.70;1.00;;;;;;5017178;28;20180;-88
2023/08/06 06:15:06;;;;;;;1.77;1.20;;;16.80;1.00;;;;;;5031427;28;20209;-88
2023/08/06 06:17:32;;;;;;;4.80;1.30;;;16.90;1.00;;;;;;5031449;28;21052;-88
2023/08/06 06:19:57;;;;;;;2.13;1.50;;;16.80;1.00;;;;;;5030691;28;20860;-88
2023/08/06 06:22:23;;;;;;;2.10;1.33;;;16.80;1.00;;;;;;5030219;28;20309;-88
2023/08/06 06:24:48;;;;;;;2.23;1.40;;;16.80;1.00;;;;;;5031618;28;20171;-88
2023/08/06 06:27:14;;;;;;;2.40;1.63;;;16.80;1.00;;;;;;5031091;28;20744;-88
2023/08/06 06:29:39;;;;;;;3.13;1.83;;;16.90;1.00;;;;;;5031216;28;20225;-87
2023/08/06 06:32:05;;;;;;;2.63;1.87;;;16.90;1.00;;;;;;5013662;28;20604;-88
2023/08/06 06:34:31;;;;;;;2.57;1.23;;;17.00;1.00;;;;;;5030531;28;20722;-88
2023/08/06 06:36:56;;;;;;;1.80;1.17;;;17.00;1.00;;;;;;5013110;28;20223;-88
2023/08/06 06:39:21;;;;;;;1.20;0.97;;;17.10;1.00;;;;;;5014108;28;20561;-88
2023/08/06 06:41:47;;;;;;;1.60;1.17;;;17.00;1.00;;;;;;5017089;28;20251;-87
2023/08/06 06:44:13;;;;;;;2.43;1.23;;;17.00;1.00;;;;;;5020627;28;20592;-88
2023/08/06 06:46:39;;;;;;;2.37;1.00;;;17.00;1.00;;;;;;5013178;28;20183;-88
2023/08/06 06:49:04;;;;;;;2.37;1.17;;;17.10;1.00;;;;;;5030339;28;20958;-88
2023/08/06 06:51:31;;;;;;;2.17;1.00;;;17.20;1.00;;;;;;5031019;28;20191;-88
2023/08/06 06:53:57;;;;;;;1.70;1.00;;;17.30;1.00;;;;;;5030995;28;20172;-88
2023/08/06 06:56:23;;;;;;;1.63;1.00;;;17.30;1.00;;;;;;5029572;28;20430;-88
2023/08/06 06:58:48;;;;;;;1.43;1.10;;;17.40;1.00;;;;;;5027734;28;20236;-88
2023/08/06 07:01:15;;;;;;;1.17;0.80;;;17.40;1.00;;;;;;5029560;28;20620;-88
2023/08/06 07:03:40;;;;;;;1.90;1.43;;;17.50;1.00;;;;;;5030089;28;20181;-88
2023/08/06 07:06:06;;;;;;;1.57;0.90;;;17.70;1.00;;;;;;5030703;28;20518;-88
2023/08/06 07:08:32;;;;;;;1.53;0.80;;;17.80;99.90;;;;;;5022527;28;20198;-88
2023/08/06 07:11:02;;;;;;;1.97;1.07;;;17.90;99.90;;;;;;5032538;28;20987;-88
2023/08/06 07:13:28;;;;;;;1.50;0.80;;;18.20;99.90;;;;;;5026617;28;20471;-89
2023/08/06 07:15:55;;;;;;;1.50;0.90;;;18.40;1.00;;;;;;5033178;28;20437;-88
2023/08/06 07:18:20;;;;;;;1.80;0.90;;;18.60;1.00;;;;;;5028819;28;20217;-88
2023/08/06 07:20:50;;;;;;;1.50;1.00;;;18.90;1.00;;;;;;5032327;28;20468;-89
2023/08/06 07:23:16;;;;;;;2.33;1.00;;;19.10;99.90;;;;;;5013022;28;20181;-89
2023/08/06 07:25:41;;;;;;;1.97;1.00;;;19.40;99.90;;;;;;5023954;28;20459;-89
2023/08/06 07:28:07;;;;;;;1.93;0.97;;;19.70;1.00;;;;;;5012857;28;20288;-89
2023/08/06 07:30:32;;;;;;;2.00;1.00;;;20.10;99.90;;;;;;5034381;28;20223;-89
2023/08/06 07:32:57;;;;;;;4.10;1.47;;;20.40;99.90;;;;;;5034437;28;20270;-89
2023/08/06 07:35:23;;;;;;;1.73;1.10;;;20.80;1.00;;;;;;5034575;28;20241;-89
2023/08/06 07:37:48;;;;;;;1.47;0.90;;;21.20;99.90;;;;;;5030002;28;20205;-89
2023/08/06 07:40:14;;;;;;;1.50;1.10;;;21.50;99.90;;;;;;5030604;28;20185;-89
2023/08/06 07:42:40;;;;;;;1.63;0.97;;;21.70;1.00;;;;;;5019005;28;20218;-89
2023/08/06 07:45:07;;;;;;;3.77;1.20;;;21.80;1.00;;;;;;5022133;28;20196;-89
2023/08/06 07:47:32;;;;;;;2.97;1.40;;;21.70;99.90;;;;;;5033638;28;20186;-89
2023/08/06 07:49:58;;;;;;;2.80;1.33;;;21.50;99.90;;;;;;5034133;28;20433;-89
2023/08/06 07:52:23;;;;;;;1.47;1.20;;;21.40;99.90;;;;;;5034041;28;20181;-90
2023/08/06 07:54:49;;;;;;;2.37;1.07;;;21.30;1.00;;;;;;5015905;28;20193;-88
2023/08/06 07:57:15;;;;;;;3.03;1.40;;;21.20;1.00;;;;;;5016112;28;20230;-88
2023/08/06 07:59:41;;;;;;;1.40;1.13;;;20.90;1.00;;;;;;5034088;28;20195;-88
2023/08/06 08:02:06;;;;;;;1.80;1.50;;;20.60;1.00;;;;;;5033930;28;20458;-88
2023/08/06 08:04:32;;;;;;;2.80;1.63;;;20.30;99.90;;;;;;5032038;28;20203;-88
2023/08/06 08:06:57;;;;;;;6.83;1.73;;;20.00;99.90;;;;;;5016038;28;20765;-88
2023/08/06 08:09:23;;;;;;;2.97;1.83;;;19.90;1.00;;;;;;5028844;28;20211;-89
2023/08/06 08:11:49;;;;;;;2.03;1.83;;;19.70;99.90;;;;;;5022274;28;20582;-88
2023/08/06 08:14:14;;;;;;;2.87;2.20;;;19.70;1.00;;;;;;5031983;28;20187;-88
2023/08/06 08:16:40;;;;;;;2.40;1.80;;;19.70;99.90;;;;;;5033508;28;20179;-87
2023/08/06 08:19:06;;;;;;;1.60;1.40;;;19.80;82.30;;;;;;5032111;28;20260;-88
2023/08/06 08:21:31;;;;;;;2.20;1.33;;;19.70;99.90;;;;;;5013331;28;20267;-88
2023/08/06 08:23:59;;;;;;;2.17;1.80;;;19.60;1.00;;;;;;5033458;28;20181;-87
2023/08/06 08:26:27;;;;;;;2.50;2.00;;;19.60;1.00;;;;;;5033200;28;20179;-88
2023/08/06 08:28:53;;;;;;;3.80;1.77;;;19.70;99.90;;;;;;5013784;28;20461;-89
2023/08/06 08:31:18;;;;;;;2.37;1.30;;;19.70;1.00;;;;;;5032915;28;20501;-86
2023/08/06 08:33:44;;;;;;;2.93;1.10;;;19.50;1.00;;;;;;5024340;28;20243;-87
2023/08/06 08:36:10;;;;;;;2.37;1.40;;;19.30;1.00;;;;;;5032589;28;20188;-85
2023/08/06 08:38:35;;;;;;;1.70;1.30;;;19.10;1.00;;;;;;5030506;28;20220;-86
2023/08/06 08:41:01;;;;;;;2.47;1.30;;;18.70;98.30;;;;;;5007110;28;20610;-86
2023/08/06 08:43:27;;;;;;;2.53;1.33;;;18.50;99.90;;;;;;5014079;28;20200;-86
2023/08/06 08:46:00;;;;;;;1.60;1.20;;;18.30;1.00;;;;;;5029602;28;20185;-86
2023/08/06 08:48:26;;;;;;;3.53;1.33;;;18.10;99.90;;;;;;5027332;28;20284;-87
2023/08/06 08:50:53;;;;;;;1.43;0.93;;;17.90;1.00;;;;;;5031158;28;20441;-86
2023/08/06 08:53:18;;;;;;;1.83;1.00;;;17.80;1.00;;;;;;5031263;28;20463;-86
2023/08/06 08:55:47;;;;;;;2.23;1.20;;;17.80;12.90;;;;;;5007108;28;20961;-86
2023/08/06 08:58:13;;;;;;;1.77;1.10;;;17.60;99.90;;;;;;5029063;28;20202;-85
2023/08/06 09:00:42;;;;;;;3.83;1.90;;;17.60;99.90;;;;;;5030836;28;20436;-86
2023/08/06 09:03:08;;;;;;;2.03;1.17;;;17.60;99.90;;;;;;5029426;28;20523;-86
2023/08/06 09:05:34;;;;;;;2.93;2.20;;;17.50;99.90;;;;;;5030559;28;20975;-86
2023/08/06 09:08:04;;;;;;;2.17;1.70;;;17.50;99.90;;;;;;5030245;28;20481;-86
2023/08/06 09:10:30;;;;;;;3.73;1.50;;;17.50;99.90;;;;;;5006632;28;20538;-87
2023/08/06 09:12:57;;;;;;;2.17;1.40;;;17.50;99.90;;;;;;5033999;28;20428;-86
2023/08/06 09:15:26;;;;;;;2.90;1.50;;;17.50;99.90;;;;;;5027942;28;20436;-86
2023/08/06 09:17:53;;;;;;;3.77;1.63;;;17.30;99.90;;;;;;5012557;28;20547;-86
2023/08/06 09:20:18;;;;;;;3.93;1.60;;;17.20;99.90;;;;;;5030593;28;20435;-86
2023/08/06 09:22:45;;;;;;;2.27;1.87;;;17.10;99.90;;;;;;5032570;28;20480;-86
2023/08/06 09:25:13;;;;;;;2.87;2.57;;;17.10;99.90;;;;;;5033521;28;20267;-86
2023/08/06 09:27:39;;;;;;;4.20;3.80;;;16.90;99.90;;;;;;5034502;28;20479;-87
2023/08/06 09:30:06;;;;;;;6.30;4.37;;;16.90;99.90;;;;;;5029341;28;20892;-86
2023/08/06 09:32:51;;;;;;;5.00;3.70;;;16.80;99.90;;;;;;5013065;28;20234;-86
2023/08/06 09:35:20;;;;;;;5.37;4.80;;;16.70;99.90;;;;;;5010648;28;20430;-85
2023/08/06 09:37:46;;;;;;;6.70;4.40;;;16.50;99.90;;;;;;5013528;28;20461;-86
2023/08/06 09:40:31;;;;;;;4.30;3.90;;;16.40;1.00;;;;;;5026142;28;20446;-86
2023/08/06 09:42:58;;;;;;;4.53;3.73;;;16.30;1.00;;;;;;5033895;28;20501;-86
2023/08/06 09:45:30;;;;;;;4.43;3.23;;;16.20;1.00;;;;;;5012789;28;20442;-86
2023/08/06 09:48:24;;;;;;;3.23;2.87;;;16.10;1.00;;;;;;5008317;28;20476;-89
2023/08/06 09:50:52;;;;;;;3.60;3.13;;;16.10;1.00;;;;;;5022722;28;20545;-85
2023/08/06 09:53:19;;;;;;;6.20;3.30;;;16.10;1.00;;;;;;5030538;28;21002;-85
2023/08/06 09:55:46;;;;;;;3.50;3.17;;;16.00;1.00;;;;;;5014856;28;20430;-86
2023/08/06 09:58:12;;;;;;;7.00;3.83;;;16.10;1.00;;;;;;5024419;28;20897;-85
2023/08/06 10:00:38;;;;;;;5.00;3.73;;;16.20;1.00;;;;;;5013743;28;20428;-85
2023/08/06 10:03:06;;;;;;;5.57;4.23;;;16.10;1.00;;;;;;5015041;28;20426;-85
2023/08/06 10:05:32;;;;;;;6.20;4.67;;;16.10;1.00;;;;;;5015670;28;20513;-85
2023/08/06 10:08:00;;;;;;;7.00;4.57;;;16.20;1.00;;;;;;5029036;28;20506;-85
2023/08/06 10:10:27;;;;;;;7.03;4.37;;;16.20;1.00;;;;;;5031316;28;20425;-85
2023/08/06 10:12:58;;;;;;;4.90;4.03;;;16.20;1.00;;;;;;5026381;28;20487;-84
2023/08/06 10:15:28;;;;;;;6.70;4.00;;;16.30;1.00;;;;;;5006207;28;20999;-84
2023/08/06 10:17:57;;;;;;;6.77;4.03;;;16.30;99.90;;;;;;5015840;28;20449;-85
2023/08/06 10:20:23;;;;;;;7.23;4.00;;;16.30;99.90;;;;;;5021122;28;20518;-85
2023/08/06 10:23:06;;;;;;;4.67;3.30;;;16.30;99.90;;;;;;5018378;28;21002;-84
2023/08/06 10:25:39;;;;;;;4.70;3.10;;;16.30;99.90;;;;;;5030044;28;20435;-85
2023/08/06 10:28:15;;;;;;;6.13;2.93;;;16.30;99.90;;;;;;5016339;28;20564;-84
2023/08/06 10:30:47;;;;;;;8.00;3.90;;;16.40;99.90;;;;;;5002945;28;20533;-84
2023/08/06 10:33:12;;;;;;;4.87;2.90;;;16.50;99.90;;;;;;5015728;28;20430;-85
2023/08/06 10:35:49;;;;;;;5.37;3.03;;;16.70;99.90;;;;;;5024474;28;20435;-84
2023/08/06 10:38:22;;;;;;;5.03;3.47;;;16.80;1.00;;;;;;5013879;28;20197;-84
2023/08/06 10:40:54;;;;;;;6.10;2.83;;;16.80;1.00;;;;;;5019598;28;20434;-85
2023/08/06 10:43:27;;;;;;;8.60;3.40;;;16.90;1.00;;;;;;5013845;28;20455;-84
2023/08/06 10:45:53;;;;;;;5.67;3.37;;;16.90;1.00;;;;;;5031610;28;20513;-84
2023/08/06 10:48:38;;;;;;;7.70;2.90;;;17.00;99.90;;;;;;5035501;28;20492;-85
2023/08/06 10:51:07;;;;;;;9.00;3.03;;;17.20;1.00;;;;;;5034983;28;20447;-84
2023/08/06 10:53:33;;;;;;;4.53;2.60;;;17.20;1.00;;;;;;5019417;28;20450;-84
2023/08/06 10:55:58;;;;;;;5.47;3.10;;;17.20;99.90;;;;;;5036259;28;20449;-84
2023/08/06 10:58:24;;;;;;;12.50;4.00;;;17.20;1.00;;;;;;5018095;28;20227;-84
2023/08/06 11:00:50;;;;;;;7.70;2.93;;;17.10;1.00;;;;;;5036005;28;20540;-84
2023/08/06 11:03:15;;;;;;;3.80;2.60;;;17.10;1.00;;;;;;5037312;28;20184;-84
2023/08/06 11:05:41;;;;;;;5.43;3.20;;;17.10;15.50;;;;;;5036153;28;20722;-84
2023/08/06 11:08:06;;;;;;;5.87;2.70;;;17.40;1.00;;;;;;5013092;28;20202;-84
2023/08/06 11:10:35;;;;;;;4.20;2.83;;;17.50;1.00;;;;;;5031549;28;20189;-84
2023/08/06 11:13:04;;;;;;;3.63;2.27;;;17.60;1.00;;;;;;5034159;28;20661;-84
2023/08/06 11:15:30;;;;;;;5.23;2.13;;;17.60;99.90;;;;;;5014774;28;20464;-84
2023/08/06 11:17:56;;;;;;;4.17;2.23;;;17.60;1.00;;;;;;5035179;28;20992;-84
2023/08/06 11:20:22;;;;;;;5.53;2.27;;;17.70;99.90;;;;;;5030097;28;20447;-84
2023/08/06 11:22:48;;;;;;;3.20;1.93;;;17.70;92.30;;;;;;5035267;28;20212;-85
2023/08/06 11:25:13;;;;;;;3.70;2.10;;;17.80;99.90;;;;;;5010924;28;20464;-84
2023/08/06 11:27:39;;;;;;;2.90;2.10;;;17.80;1.00;;;;;;5029055;28;20210;-84
2023/08/06 11:30:05;;;;;;;3.73;2.07;;;18.00;44.90;;;;;;5029127;28;20248;-85
2023/08/06 11:32:31;;;;;;;3.27;2.30;;;18.00;1.00;;;;;;5029318;28;20206;-84
2023/08/06 11:34:56;;;;;;;6.33;2.30;;;18.00;99.90;;;;;;5024011;28;20444;-84
2023/08/06 11:37:25;;;;;;;6.40;2.30;;;18.30;1.00;;;;;;5029383;28;20201;-83
2023/08/06 11:39:51;;;;;;;3.30;1.57;;;18.60;99.90;;;;;;5015735;28;20200;-84
2023/08/06 11:42:17;;;;;;;4.60;1.87;;;19.00;1.00;;;;;;5027122;28;20534;-84
2023/08/06 11:44:46;;;;;;;3.87;1.50;;;19.20;99.90;;;;;;5029996;28;20531;-84
2023/08/06 11:47:16;;;;;;;4.20;2.00;;;19.40;1.00;;;;;;5019384;28;20183;-84
2023/08/06 11:49:49;;;;;;;4.83;2.20;;;19.50;1.00;;;;;;5017977;28;20442;-84
2023/08/06 11:52:18;;;;;;;3.37;2.57;;;19.30;1.00;;;;;;5007787;28;22432;-83
2023/08/06 11:54:44;;;;;;;6.37;2.20;;;19.10;1.00;;;;;;5001436;28;20497;-84
2023/08/06 11:57:11;;;;;;;4.00;2.10;;;19.00;1.00;;;;;;5032128;28;20978;-84
2023/08/06 11:59:38;;;;;;;3.60;2.30;;;18.80;69.50;;;;;;5033228;28;20463;-85
2023/08/06 12:02:08;;;;;;;4.47;2.30;;;18.80;99.90;;;;;;5024818;28;20476;-85
2023/08/06 12:05:00;;;;;;;3.60;2.50;;;18.70;1.00;;;;;;5005599;28;20444;-84
2023/08/06 12:07:30;;;;;;;12.03;2.90;;;18.60;5.50;;;;;;5013697;28;20470;-84
2023/08/06 12:09:56;;;;;;;6.80;3.03;;;18.30;1.00;;;;;;5029557;28;20427;-84
2023/08/06 12:12:22;;;;;;;5.50;3.47;;;18.00;99.90;;;;;;5014415;28;20441;-84
2023/08/06 12:14:48;;;;;;;4.50;3.10;;;17.80;58.70;;;;;;5015162;28;20430;-85
2023/08/06 12:17:13;;;;;;;4.47;2.40;;;17.70;1.00;;;;;;5016129;28;20459;-84
2023/08/06 12:19:38;;;;;;;4.83;2.53;;;17.50;99.90;;;;;;5040761;28;20306;-84
2023/08/06 12:22:04;;;;;;;11.37;3.30;;;17.50;1.00;;;;;;5035848;28;20610;-84
2023/08/06 12:24:31;;;;;;;4.13;2.20;;;17.60;1.00;;;;;;5029161;28;20195;-85
2023/08/06 12:26:57;;;;;;;3.07;2.37;;;17.60;52.20;;;;;;5039776;28;20182;-84
2023/08/06 12:29:25;;;;;;;3.80;2.47;;;18.00;99.90;;;;;;5042334;28;21050;-85
2023/08/06 12:31:51;;;;;;;7.67;2.60;;;18.40;99.90;;;;;;5037588;28;20463;-85
2023/08/06 12:34:16;;;;;;;3.70;2.23;;;18.70;99.90;;;;;;5011471;28;20529;-85
2023/08/06 12:36:42;;;;;;;4.13;2.13;;;19.00;63.30;;;;;;5033718;28;20198;-84
2023/08/06 12:39:07;;;;;;;6.53;2.60;;;19.10;1.00;;;;;;5029081;28;20202;-85
2023/08/06 12:41:33;;;;;;;4.63;2.83;;;19.40;1.00;;;;;;5039279;28;20274;-85
2023/08/06 12:43:59;;;;;;;5.87;3.40;;;19.50;99.90;;;;;;5041624;28;20238;-85
2023/08/06 12:46:24;;;;;;;7.87;4.10;;;19.30;99.90;;;;;;5035770;28;20191;-84
2023/08/06 12:48:50;;;;;;;7.40;4.03;;;19.20;1.00;;;;;;5032439;28;20224;-84
2023/08/06 12:51:16;;;;;;;6.37;4.60;;;19.10;99.90;;;;;;5011233;28;20193;-85